sensor_id;sensor_type;location;lat;lon;timestamp;temperature;humidity
17348;DHT22;8791;50.876;4.342;2024-01-11T00:01:45;-1.80;99.90
17348;DHT22;8791;50.876;4.342;2024-01-11T00:04:12;-1.90;99.90
17348;DHT22;8791;50.876;4.342;2024-01-11T00:06:41;-2.00;99.90
17348;DHT22;8791;50.876;4.342;2024-01-11T00:09:08;-2.00;99.90
17348;DHT22;8791;50.876;4.342;2024-01-11T00:11:35;-2.10;99.90
17348;DHT22;8791;50.876;4.342;2024-01-11T00:14:02;-2.00;99.90
17348;DHT22;8791;50.876;4.342;2024-01-11T00:16:29;-2.00;99.90
17348;DHT22;8791;50.876;4.342;2024-01-11T00:18:57;-2.00;99.90
17348;DHT22;8791;50.876;4.342;2024-01-11T00:21:24;-2.00;99.90
17348;DHT22;8791;50.876;4.342;2024-01-11T00:23:51;-2.00;99.90
17348;DHT22;8791;50.876;4.342;2024-01-11T00:26:18;-2.10;99.90
17348;DHT22;8791;50.876;4.342;2024-01-11T00:28:45;-2.20;99.90
17348;DHT22;8791;50.876;4.342;2024-01-11T00:31:12;-2.20;99.90
17348;DHT22;8791;50.876;4.342;2024-01-11T00:33:39;-2.30;99.90
17348;DHT22;8791;50.876;4.342;2024-01-11T00:36:08;-2.30;99.90
17348;DHT22;8791;50.876;4.342;2024-01-11T00:38:35;-2.20;99.90
17348;DHT22;8791;50.876;4.342;2024-01-11T00:41:02;-2.10;99.90
17348;DHT22;8791;50.876;4.342;2024-01-11T00:43:29;-2.10;99.90
17348;DHT22;8791;50.876;4.342;2024-01-11T00:45:56;-2.10;99.90
17348;DHT22;8791;50.876;4.342;2024-01-11T00:48:23;-2.00;99.90
17348;DHT22;8791;50.876;4.342;2024-01-11T00:50:50;-2.20;99.90
17348;DHT22;8791;50.876;4.342;2024-01-11T00:53:18;-2.10;99.90
17348;DHT22;8791;50.876;4.342;2024-01-11T00:55:45;-2.20;99.90
17348;DHT22;8791;50.876;4.342;2024-01-11T00:58:12;-2.10;99.90
17348;DHT22;8791;50.876;4.342;2024-01-11T01:00:39;-2.20;99.90
17348;DHT22;8791;50.876;4.342;2024-01-11T01:03:06;-2.30;99.90
17348;DHT22;8791;50.876;4.342;2024-01-11T01:05:33;-2.30;99.90
17348;DHT22;8791;50.876;4.342;2024-01-11T01:08:00;-2.20;99.90
17348;DHT22;8791;50.876;4.342;2024-01-11T01:10:29;-2.20;99.90
17348;DHT22;8791;50.876;4.342;2024-01-11T01:12:55;-2.40;99.90
17348;DHT22;8791;50.876;4.342;2024-01-11T01:15:22;-2.50;99.90
17348;DHT22;8791;50.876;4.342;2024-01-11T01:17:50;-2.50;99.90
17348;DHT22;8791;50.876;4.342;2024-01-11T01:20:16;-2.50;99.90
17348;DHT22;8791;50.876;4.342;2024-01-11T01:22:43;-2.40;99.90
17348;DHT22;8791;50.876;4.342;2024-01-11T01:25:10;-2.30;99.90
17348;DHT22;8791;50.876;4.342;2024-01-11T01:27:39;-2.40;99.90
17348;DHT22;8791;50.876;4.342;2024-01-11T01:30:06;-2.30;99.90
17348;DHT22;8791;50.876;4.342;2024-01-11T01:32:34;-2.20;99.90
17348;DHT22;8791;50.876;4.342;2024-01-11T01:35:01;-2.30;99.90
17348;DHT22;8791;50.876;4.342;2024-01-11T01:37:28;-2.40;99.90
17348;DHT22;8791;50.876;4.342;2024-01-11T01:39:55;-2.30;99.90
17348;DHT22;8791;50.876;4.342;2024-01-11T01:42:22;-2.40;99.90
17348;DHT22;8791;50.876;4.342;2024-01-11T01:44:50;-2.60;99.90
17348;DHT22;8791;50.876;4.342;2024-01-11T01:47:18;-2.60;99.90
17348;DHT22;8791;50.876;4.342;2024-01-11T01:49:45;-2.50;99.90
17348;DHT22;8791;50.876;4.342;2024-01-11T01:52:14;-2.40;99.90
17348;DHT22;8791;50.876;4.342;2024-01-11T01:54:42;-2.40;99.90
17348;DHT22;8791;50.876;4.342;2024-01-11T01:57:10;-2.30;99.90
17348;DHT22;8791;50.876;4.342;2024-01-11T01:59:38;-2.40;99.90
17348;DHT22;8791;50.876;4.342;2024-01-11T02:02:07;-2.40;99.90
17348;DHT22;8791;50.876;4.342;2024-01-11T02:04:35;-2.40;99.90
17348;DHT22;8791;50.876;4.342;2024-01-11T02:07:02;-2.50;99.90
17348;DHT22;8791;50.876;4.342;2024-01-11T02:09:30;-2.60;99.90
17348;DHT22;8791;50.876;4.342;2024-01-11T02:11:58;-2.60;99.90
17348;DHT22;8791;50.876;4.342;2024-01-11T02:14:25;-2.60;99.90
17348;DHT22;8791;50.876;4.342;2024-01-11T02:16:53;-2.60;99.90
17348;DHT22;8791;50.876;4.342;2024-01-11T02:19:22;-2.70;99.90
17348;DHT22;8791;50.876;4.342;2024-01-11T02:21:51;-2.70;99.90
17348;DHT22;8791;50.876;4.342;2024-01-11T02:24:22;-2.70;99.90
17348;DHT22;8791;50.876;4.342;2024-01-11T02:26:59;-2.80;99.90
17348;DHT22;8791;50.876;4.342;2024-01-11T02:29:27;-2.80;99.90
17348;DHT22;8791;50.876;4.342;2024-01-11T02:31:54;-2.80;99.90
17348;DHT22;8791;50.876;4.342;2024-01-11T02:34:22;-2.90;99.90
17348;DHT22;8791;50.876;4.342;2024-01-11T02:36:50;-2.80;99.90
17348;DHT22;8791;50.876;4.342;2024-01-11T02:39:19;-2.70;99.90
17348;DHT22;8791;50.876;4.342;2024-01-11T02:41:47;-2.60;99.90
17348;DHT22;8791;50.876;4.342;2024-01-11T02:44:16;-2.50;99.90
17348;DHT22;8791;50.876;4.342;2024-01-11T02:46:43;-2.60;99.90
17348;DHT22;8791;50.876;4.342;2024-01-11T02:49:10;-2.80;99.90
17348;DHT22;8791;50.876;4.342;2024-01-11T02:51:37;-2.80;99.90
17348;DHT22;8791;50.876;4.342;2024-01-11T02:54:05;-2.70;99.90
17348;DHT22;8791;50.876;4.342;2024-01-11T02:56:32;-2.70;99.90
17348;DHT22;8791;50.876;4.342;2024-01-11T02:59:00;-2.80;99.90
17348;DHT22;8791;50.876;4.342;2024-01-11T03:01:27;-2.80;99.90
17348;DHT22;8791;50.876;4.342;2024-01-11T03:03:54;-2.70;99.90
17348;DHT22;8791;50.876;4.342;2024-01-11T03:06:22;-2.70;99.90
17348;DHT22;8791;50.876;4.342;2024-01-11T03:08:48;-2.80;99.90
17348;DHT22;8791;50.876;4.342;2024-01-11T03:11:15;-2.80;99.90
17348;DHT22;8791;50.876;4.342;2024-01-11T03:13:43;-2.90;99.90
17348;DHT22;8791;50.876;4.342;2024-01-11T03:16:11;-2.80;99.90
17348;DHT22;8791;50.876;4.342;2024-01-11T03:18:39;-2.80;99.90
17348;DHT22;8791;50.876;4.342;2024-01-11T03:21:06;-2.70;99.90
17348;DHT22;8791;50.876;4.342;2024-01-11T03:23:33;-2.70;99.90
17348;DHT22;8791;50.876;4.342;2024-01-11T03:25:59;-2.70;99.90
17348;DHT22;8791;50.876;4.342;2024-01-11T03:28:26;-2.70;99.90
17348;DHT22;8791;50.876;4.342;2024-01-11T03:30:53;-2.70;99.90
17348;DHT22;8791;50.876;4.342;2024-01-11T03:33:22;-2.70;99.90
17348;DHT22;8791;50.876;4.342;2024-01-11T03:35:49;-2.80;99.90
17348;DHT22;8791;50.876;4.342;2024-01-11T03:38:16;-2.70;99.90
17348;DHT22;8791;50.876;4.342;2024-01-11T03:40:43;-2.60;99.90
17348;DHT22;8791;50.876;4.342;2024-01-11T03:43:10;-2.80;99.90
17348;DHT22;8791;50.876;4.342;2024-01-11T03:45:37;-2.80;99.90
17348;DHT22;8791;50.876;4.342;2024-01-11T03:48:04;-2.70;99.90
17348;DHT22;8791;50.876;4.342;2024-01-11T03:50:32;-2.80;99.90
17348;DHT22;8791;50.876;4.342;2024-01-11T03:52:59;-2.70;99.90
17348;DHT22;8791;50.876;4.342;2024-01-11T03:55:26;-2.90;99.90
17348;DHT22;8791;50.876;4.342;2024-01-11T03:57:53;-3.10;99.90
17348;DHT22;8791;50.876;4.342;2024-01-11T04:00:20;-3.10;99.90
17348;DHT22;8791;50.876;4.342;2024-01-11T04:02:47;-3.00;99.90
17348;DHT22;8791;50.876;4.342;2024-01-11T04:05:14;-3.10;99.90
17348;DHT22;8791;50.876;4.342;2024-01-11T04:07:43;-3.10;99.90
17348;DHT22;8791;50.876;4.342;2024-01-11T04:10:10;-3.10;99.90
17348;DHT22;8791;50.876;4.342;2024-01-11T04:12:37;-3.10;99.90
17348;DHT22;8791;50.876;4.342;2024-01-11T04:15:05;-3.00;99.90
17348;DHT22;8791;50.876;4.342;2024-01-11T04:17:32;-3.00;99.90
17348;DHT22;8791;50.876;4.342;2024-01-11T04:19:59;-3.00;99.90
17348;DHT22;8791;50.876;4.342;2024-01-11T04:22:28;-2.90;99.90
17348;DHT22;8791;50.876;4.342;2024-01-11T04:24:57;-3.10;99.90
17348;DHT22;8791;50.876;4.342;2024-01-11T04:27:24;-3.10;99.90
17348;DHT22;8791;50.876;4.342;2024-01-11T04:29:51;-2.90;99.90
17348;DHT22;8791;50.876;4.342;2024-01-11T04:32:18;-3.20;99.90
17348;DHT22;8791;50.876;4.342;2024-01-11T04:34:44;-3.20;99.90
17348;DHT22;8791;50.876;4.342;2024-01-11T04:37:11;-3.10;99.90
17348;DHT22;8791;50.876;4.342;2024-01-11T04:39:38;-3.00;99.90
17348;DHT22;8791;50.876;4.342;2024-01-11T04:42:07;-2.90;99.90
17348;DHT22;8791;50.876;4.342;2024-01-11T04:44:34;-2.90;99.90
17348;DHT22;8791;50.876;4.342;2024-01-11T04:47:01;-2.90;99.90
17348;DHT22;8791;50.876;4.342;2024-01-11T04:49:28;-3.00;99.90
17348;DHT22;8791;50.876;4.342;2024-01-11T04:51:55;-2.80;99.90
17348;DHT22;8791;50.876;4.342;2024-01-11T04:54:22;-3.00;99.90
17348;DHT22;8791;50.876;4.342;2024-01-11T04:56:49;-3.10;99.90
17348;DHT22;8791;50.876;4.342;2024-01-11T04:59:17;-3.10;99.90
17348;DHT22;8791;50.876;4.342;2024-01-11T05:01:45;-3.20;99.90
17348;DHT22;8791;50.876;4.342;2024-01-11T05:04:12;-3.20;99.90
17348;DHT22;8791;50.876;4.342;2024-01-11T05:06:39;-3.10;99.90
17348;DHT22;8791;50.876;4.342;2024-01-11T05:09:06;-3.00;99.90
17348;DHT22;8791;50.876;4.342;2024-01-11T05:11:33;-3.00;99.90
17348;DHT22;8791;50.876;4.342;2024-01-11T05:14:00;-3.00;99.90
17348;DHT22;8791;50.876;4.342;2024-01-11T05:16:29;-3.10;99.90
17348;DHT22;8791;50.876;4.342;2024-01-11T05:18:57;-3.20;99.90
17348;DHT22;8791;50.876;4.342;2024-01-11T05:21:25;-3.10;99.90
17348;DHT22;8791;50.876;4.342;2024-01-11T05:23:52;-3.20;99.90
17348;DHT22;8791;50.876;4.342;2024-01-11T05:26:19;-3.10;99.90
17348;DHT22;8791;50.876;4.342;2024-01-11T05:28:47;-3.30;99.90
17348;DHT22;8791;50.876;4.342;2024-01-11T05:31:15;-3.20;99.90
17348;DHT22;8791;50.876;4.342;2024-01-11T05:33:43;-3.20;99.90
17348;DHT22;8791;50.876;4.342;2024-01-11T05:36:11;-3.30;99.90
17348;DHT22;8791;50.876;4.342;2024-01-11T05:38:39;-3.30;99.90
17348;DHT22;8791;50.876;4.342;2024-01-11T05:41:06;-3.40;99.90
17348;DHT22;8791;50.876;4.342;2024-01-11T05:43:33;-3.30;99.90
17348;DHT22;8791;50.876;4.342;2024-01-11T05:46:01;-3.10;99.90
17348;DHT22;8791;50.876;4.342;2024-01-11T05:48:28;-3.10;99.90
17348;DHT22;8791;50.876;4.342;2024-01-11T05:50:56;-3.30;99.90
17348;DHT22;8791;50.876;4.342;2024-01-11T05:53:23;-3.30;99.90
17348;DHT22;8791;50.876;4.342;2024-01-11T05:55:51;-3.40;99.90
17348;DHT22;8791;50.876;4.342;2024-01-11T05:58:18;-3.20;99.90
17348;DHT22;8791;50.876;4.342;2024-01-11T06:00:45;-3.10;99.90
17348;DHT22;8791;50.876;4.342;2024-01-11T06:03:12;-3.10;99.90
17348;DHT22;8791;50.876;4.342;2024-01-11T06:05:39;-3.30;99.90
17348;DHT22;8791;50.876;4.342;2024-01-11T06:08:08;-3.40;99.90
17348;DHT22;8791;50.876;4.342;2024-01-11T06:10:35;-3.40;99.90
17348;DHT22;8791;50.876;4.342;2024-01-11T06:13:03;-3.50;99.90
17348;DHT22;8791;50.876;4.342;2024-01-11T06:15:30;-3.50;99.90
17348;DHT22;8791;50.876;4.342;2024-01-11T06:17:57;-3.50;99.90
17348;DHT22;8791;50.876;4.342;2024-01-11T06:20:24;-3.50;99.90
17348;DHT22;8791;50.876;4.342;2024-01-11T06:22:51;-3.30;99.90
17348;DHT22;8791;50.876;4.342;2024-01-11T06:25:19;-3.40;99.90
17348;DHT22;8791;50.876;4.342;2024-01-11T06:27:47;-3.40;99.90
17348;DHT22;8791;50.876;4.342;2024-01-11T06:30:14;-3.50;99.90
17348;DHT22;8791;50.876;4.342;2024-01-11T06:32:41;-3.40;99.90
17348;DHT22;8791;50.876;4.342;2024-01-11T06:35:08;-3.30;99.90
17348;DHT22;8791;50.876;4.342;2024-01-11T06:37:35;-3.10;99.90
17348;DHT22;8791;50.876;4.342;2024-01-11T06:40:02;-3.30;99.90
17348;DHT22;8791;50.876;4.342;2024-01-11T06:42:31;-3.40;99.90
17348;DHT22;8791;50.876;4.342;2024-01-11T06:44:58;-3.50;99.90
17348;DHT22;8791;50.876;4.342;2024-01-11T06:47:25;-3.50;99.90
17348;DHT22;8791;50.876;4.342;2024-01-11T06:49:52;-3.40;99.90
17348;DHT22;8791;50.876;4.342;2024-01-11T06:52:19;-3.40;99.90
17348;DHT22;8791;50.876;4.342;2024-01-11T06:54:46;-3.40;99.90
17348;DHT22;8791;50.876;4.342;2024-01-11T06:57:13;-3.50;99.90
17348;DHT22;8791;50.876;4.342;2024-01-11T06:59:42;-3.40;99.90
17348;DHT22;8791;50.876;4.342;2024-01-11T07:02:11;-3.50;99.90
17348;DHT22;8791;50.876;4.342;2024-01-11T07:04:43;-3.50;99.90
17348;DHT22;8791;50.876;4.342;2024-01-11T07:07:10;-3.60;99.90
17348;DHT22;8791;50.876;4.342;2024-01-11T07:09:37;-3.70;99.90
17348;DHT22;8791;50.876;4.342;2024-01-11T07:12:05;-3.70;99.90
17348;DHT22;8791;50.876;4.342;2024-01-11T07:14:32;-3.80;99.90
17348;DHT22;8791;50.876;4.342;2024-01-11T07:17:00;-3.70;99.90
17348;DHT22;8791;50.876;4.342;2024-01-11T07:19:28;-3.60;99.90
17348;DHT22;8791;50.876;4.342;2024-01-11T07:21:55;-3.40;99.90
17348;DHT22;8791;50.876;4.342;2024-01-11T07:24:22;-3.30;99.90
17348;DHT22;8791;50.876;4.342;2024-01-11T07:26:49;-3.40;99.90
17348;DHT22;8791;50.876;4.342;2024-01-11T07:29:16;-3.50;99.90
17348;DHT22;8791;50.876;4.342;2024-01-11T07:31:43;-3.30;99.90
17348;DHT22;8791;50.876;4.342;2024-01-11T07:34:11;-3.40;99.90
17348;DHT22;8791;50.876;4.342;2024-01-11T07:36:38;-3.40;99.90
17348;DHT22;8791;50.876;4.342;2024-01-11T07:39:05;-3.30;99.90
17348;DHT22;8791;50.876;4.342;2024-01-11T07:41:32;-3.40;99.90
17348;DHT22;8791;50.876;4.342;2024-01-11T07:43:59;-3.40;99.90
17348;DHT22;8791;50.876;4.342;2024-01-11T07:46:26;-3.30;99.90
17348;DHT22;8791;50.876;4.342;2024-01-11T07:48:53;-3.40;99.90
17348;DHT22;8791;50.876;4.342;2024-01-11T07:51:21;-3.40;99.90
17348;DHT22;8791;50.876;4.342;2024-01-11T07:53:48;-3.50;99.90
17348;DHT22;8791;50.876;4.342;2024-01-11T07:56:15;-3.70;99.90
17348;DHT22;8791;50.876;4.342;2024-01-11T07:58:42;-3.70;99.90
17348;DHT22;8791;50.876;4.342;2024-01-11T08:01:09;-3.70;99.90
17348;DHT22;8791;50.876;4.342;2024-01-11T08:03:38;-3.60;99.90
17348;DHT22;8791;50.876;4.342;2024-01-11T08:06:07;-3.60;99.90
17348;DHT22;8791;50.876;4.342;2024-01-11T08:08:37;-3.60;99.90
17348;DHT22;8791;50.876;4.342;2024-01-11T08:11:04;-3.60;99.90
17348;DHT22;8791;50.876;4.342;2024-01-11T08:13:31;-3.60;99.90
17348;DHT22;8791;50.876;4.342;2024-01-11T08:16:00;-3.70;99.90
17348;DHT22;8791;50.876;4.342;2024-01-11T08:18:29;-3.70;99.90
17348;DHT22;8791;50.876;4.342;2024-01-11T08:20:56;-3.60;99.90
17348;DHT22;8791;50.876;4.342;2024-01-11T08:23:23;-3.70;99.90
17348;DHT22;8791;50.876;4.342;2024-01-11T08:25:51;-3.50;99.90
17348;DHT22;8791;50.876;4.342;2024-01-11T08:28:18;-3.50;99.90
17348;DHT22;8791;50.876;4.342;2024-01-11T08:30:46;-3.40;99.90
17348;DHT22;8791;50.876;4.342;2024-01-11T08:33:12;-3.40;99.90
17348;DHT22;8791;50.876;4.342;2024-01-11T08:35:39;-3.40;99.90
17348;DHT22;8791;50.876;4.342;2024-01-11T08:38:07;-3.30;99.90
17348;DHT22;8791;50.876;4.342;2024-01-11T08:40:34;-3.40;99.90
17348;DHT22;8791;50.876;4.342;2024-01-11T08:43:03;-3.50;99.90
17348;DHT22;8791;50.876;4.342;2024-01-11T08:45:31;-3.60;99.90
17348;DHT22;8791;50.876;4.342;2024-01-11T08:47:58;-3.50;99.90
17348;DHT22;8791;50.876;4.342;2024-01-11T08:50:26;-3.40;99.90
17348;DHT22;8791;50.876;4.342;2024-01-11T08:52:53;-3.40;99.90
17348;DHT22;8791;50.876;4.342;2024-01-11T08:55:20;-3.20;99.90
17348;DHT22;8791;50.876;4.342;2024-01-11T08:57:47;-3.40;99.90
17348;DHT22;8791;50.876;4.342;2024-01-11T09:00:16;-3.20;99.90
17348;DHT22;8791;50.876;4.342;2024-01-11T09:02:44;-3.50;99.90
17348;DHT22;8791;50.876;4.342;2024-01-11T09:05:11;-3.60;99.90
17348;DHT22;8791;50.876;4.342;2024-01-11T09:07:38;-3.40;99.90
17348;DHT22;8791;50.876;4.342;2024-01-11T09:10:06;-3.30;99.90
17348;DHT22;8791;50.876;4.342;2024-01-11T09:12:34;-3.20;99.90
17348;DHT22;8791;50.876;4.342;2024-01-11T09:15:02;-3.20;99.90
17348;DHT22;8791;50.876;4.342;2024-01-11T09:17:30;-3.10;99.90
17348;DHT22;8791;50.876;4.342;2024-01-11T09:19:58;-3.10;99.90
17348;DHT22;8791;50.876;4.342;2024-01-11T09:22:25;-3.20;99.90
17348;DHT22;8791;50.876;4.342;2024-01-11T09:24:53;-3.20;99.90
17348;DHT22;8791;50.876;4.342;2024-01-11T09:27:20;-3.10;99.90
17348;DHT22;8791;50.876;4.342;2024-01-11T09:29:48;-3.20;99.90
17348;DHT22;8791;50.876;4.342;2024-01-11T09:32:14;-3.00;99.90
17348;DHT22;8791;50.876;4.342;2024-01-11T09:34:42;-3.10;99.90
17348;DHT22;8791;50.876;4.342;2024-01-11T09:37:11;-3.00;99.90
17348;DHT22;8791;50.876;4.342;2024-01-11T09:39:38;-3.00;99.90
17348;DHT22;8791;50.876;4.342;2024-01-11T09:42:07;-2.90;99.90
17348;DHT22;8791;50.876;4.342;2024-01-11T09:44:36;-2.80;99.90
17348;DHT22;8791;50.876;4.342;2024-01-11T09:47:05;-2.60;99.90
17348;DHT22;8791;50.876;4.342;2024-01-11T09:49:33;-2.50;99.90
17348;DHT22;8791;50.876;4.342;2024-01-11T09:52:02;-2.60;99.90
17348;DHT22;8791;50.876;4.342;2024-01-11T09:54:29;-2.50;99.90
17348;DHT22;8791;50.876;4.342;2024-01-11T09:56:59;-2.50;99.90
17348;DHT22;8791;50.876;4.342;2024-01-11T09:59:26;-2.40;99.90
17348;DHT22;8791;50.876;4.342;2024-01-11T10:01:54;-2.20;99.90
17348;DHT22;8791;50.876;4.342;2024-01-11T10:04:21;-2.20;99.90
17348;DHT22;8791;50.876;4.342;2024-01-11T10:06:49;-2.20;99.90
17348;DHT22;8791;50.876;4.342;2024-01-11T10:09:18;-2.10;99.90
17348;DHT22;8791;50.876;4.342;2024-01-11T10:11:45;-2.20;99.90
17348;DHT22;8791;50.876;4.342;2024-01-11T10:14:13;-2.20;99.90
17348;DHT22;8791;50.876;4.342;2024-01-11T10:16:41;-2.10;99.90
17348;DHT22;8791;50.876;4.342;2024-01-11T10:19:08;-2.10;99.90
17348;DHT22;8791;50.876;4.342;2024-01-11T10:21:38;-2.00;99.90
17348;DHT22;8791;50.876;4.342;2024-01-11T10:24:06;-2.00;99.90
17348;DHT22;8791;50.876;4.342;2024-01-11T10:26:35;-1.90;99.90
17348;DHT22;8791;50.876;4.342;2024-01-11T10:29:02;-1.70;99.90
17348;DHT22;8791;50.876;4.342;2024-01-11T10:31:36;-1.60;99.90
17348;DHT22;8791;50.876;4.342;2024-01-11T10:34:04;-1.60;99.90
17348;DHT22;8791;50.876;4.342;2024-01-11T10:36:32;-1.60;99.90
17348;DHT22;8791;50.876;4.342;2024-01-11T10:39:02;-1.60;99.90
17348;DHT22;8791;50.876;4.342;2024-01-11T10:41:35;-1.70;99.90
17348;DHT22;8791;50.876;4.342;2024-01-11T10:44:07;-1.60;99.90
17348;DHT22;8791;50.876;4.342;2024-01-11T10:46:37;-1.50;99.90
17348;DHT22;8791;50.876;4.342;2024-01-11T10:49:04;-1.60;99.90
17348;DHT22;8791;50.876;4.342;2024-01-11T10:51:33;-1.60;99.90
17348;DHT22;8791;50.876;4.342;2024-01-11T10:54:01;-1.50;99.90
17348;DHT22;8791;50.876;4.342;2024-01-11T10:56:30;-1.50;99.90
17348;DHT22;8791;50.876;4.342;2024-01-11T10:59:00;-1.50;99.90
17348;DHT22;8791;50.876;4.342;2024-01-11T11:01:29;-1.60;99.90
17348;DHT22;8791;50.876;4.342;2024-01-11T11:03:57;-1.60;99.90
17348;DHT22;8791;50.876;4.342;2024-01-11T11:06:26;-1.60;99.90
17348;DHT22;8791;50.876;4.342;2024-01-11T11:08:54;-1.50;99.90
17348;DHT22;8791;50.876;4.342;2024-01-11T11:11:22;-1.30;99.90
17348;DHT22;8791;50.876;4.342;2024-01-11T11:13:50;-1.30;99.90
17348;DHT22;8791;50.876;4.342;2024-01-11T11:16:19;-1.10;99.90
17348;DHT22;8791;50.876;4.342;2024-01-11T11:18:46;-1.10;99.90
17348;DHT22;8791;50.876;4.342;2024-01-11T11:21:13;-1.20;99.90
17348;DHT22;8791;50.876;4.342;2024-01-11T11:23:42;-1.10;99.90
17348;DHT22;8791;50.876;4.342;2024-01-11T11:26:15;-0.90;99.90
17348;DHT22;8791;50.876;4.342;2024-01-11T11:28:42;-1.10;99.90
17348;DHT22;8791;50.876;4.342;2024-01-11T11:31:11;-1.20;99.90
17348;DHT22;8791;50.876;4.342;2024-01-11T11:33:40;-1.20;99.90
17348;DHT22;8791;50.876;4.342;2024-01-11T11:36:12;-1.00;99.90
17348;DHT22;8791;50.876;4.342;2024-01-11T11:38:39;-0.90;99.90
17348;DHT22;8791;50.876;4.342;2024-01-11T11:41:07;-0.80;99.90
17348;DHT22;8791;50.876;4.342;2024-01-11T11:43:34;-0.70;99.90
17348;DHT22;8791;50.876;4.342;2024-01-11T11:46:02;-0.70;99.90
17348;DHT22;8791;50.876;4.342;2024-01-11T11:48:50;-0.70;99.90
17348;DHT22;8791;50.876;4.342;2024-01-11T11:51:18;-0.40;99.90
17348;DHT22;8791;50.876;4.342;2024-01-11T11:53:46;-0.40;99.90
17348;DHT22;8791;50.876;4.342;2024-01-11T11:56:15;-0.40;99.90
17348;DHT22;8791;50.876;4.342;2024-01-11T11:58:44;-0.40;99.90
17348;DHT22;8791;50.876;4.342;2024-01-11T12:01:12;-0.20;99.90
17348;DHT22;8791;50.876;4.342;2024-01-11T12:03:41;-0.20;99.90
17348;DHT22;8791;50.876;4.342;2024-01-11T12:06:13;-0.10;99.90
17348;DHT22;8791;50.876;4.342;2024-01-11T12:08:42;-0.20;99.90
17348;DHT22;8791;50.876;4.342;2024-01-11T12:11:09;-0.10;99.90
17348;DHT22;8791;50.876;4.342;2024-01-11T12:13:36;0.00;99.90
17348;DHT22;8791;50.876;4.342;2024-01-11T12:16:04;0.00;99.90
17348;DHT22;8791;50.876;4.342;2024-01-11T12:18:31;-0.10;99.90
17348;DHT22;8791;50.876;4.342;2024-01-11T12:20:58;-0.10;99.90
17348;DHT22;8791;50.876;4.342;2024-01-11T12:23:27;-0.30;99.90
17348;DHT22;8791;50.876;4.342;2024-01-11T12:25:55;-0.20;99.90
17348;DHT22;8791;50.876;4.342;2024-01-11T12:28:23;-0.10;99.90
17348;DHT22;8791;50.876;4.342;2024-01-11T12:30:50;0.00;99.90
17348;DHT22;8791;50.876;4.342;2024-01-11T12:33:17;0.10;99.90
17348;DHT22;8791;50.876;4.342;2024-01-11T12:35:45;0.20;99.90
17348;DHT22;8791;50.876;4.342;2024-01-11T12:38:12;0.10;99.90
17348;DHT22;8791;50.876;4.342;2024-01-11T12:40:40;0.10;99.90
17348;DHT22;8791;50.876;4.342;2024-01-11T12:43:07;0.10;99.90
17348;DHT22;8791;50.876;4.342;2024-01-11T12:45:35;0.10;99.90
17348;DHT22;8791;50.876;4.342;2024-01-11T12:48:02;0.20;99.90
17348;DHT22;8791;50.876;4.342;2024-01-11T12:50:30;0.30;99.90
17348;DHT22;8791;50.876;4.342;2024-01-11T12:53:06;0.20;99.90
17348;DHT22;8791;50.876;4.342;2024-01-11T12:55:33;0.30;99.90
17348;DHT22;8791;50.876;4.342;2024-01-11T12:58:06;0.40;99.90
17348;DHT22;8791;50.876;4.342;2024-01-11T13:00:38;0.30;99.90
17348;DHT22;8791;50.876;4.342;2024-01-11T13:03:06;0.30;99.90
17348;DHT22;8791;50.876;4.342;2024-01-11T13:05:35;0.40;99.90
17348;DHT22;8791;50.876;4.342;2024-01-11T13:08:02;0.50;99.90
17348;DHT22;8791;50.876;4.342;2024-01-11T13:10:30;0.30;99.90
17348;DHT22;8791;50.876;4.342;2024-01-11T13:12:58;0.40;99.90
17348;DHT22;8791;50.876;4.342;2024-01-11T13:15:26;0.50;99.90
17348;DHT22;8791;50.876;4.342;2024-01-11T13:17:55;0.50;99.90
17348;DHT22;8791;50.876;4.342;2024-01-11T13:20:22;0.50;99.90
17348;DHT22;8791;50.876;4.342;2024-01-11T13:22:53;0.60;99.90
17348;DHT22;8791;50.876;4.342;2024-01-11T13:25:20;0.70;99.90
17348;DHT22;8791;50.876;4.342;2024-01-11T13:27:47;0.70;99.90
17348;DHT22;8791;50.876;4.342;2024-01-11T13:30:14;0.80;99.90
17348;DHT22;8791;50.876;4.342;2024-01-11T13:32:43;0.90;99.90
17348;DHT22;8791;50.876;4.342;2024-01-11T13:35:10;0.90;99.90
17348;DHT22;8791;50.876;4.342;2024-01-11T13:37:37;0.90;99.90
17348;DHT22;8791;50.876;4.342;2024-01-11T13:40:05;0.90;99.90
17348;DHT22;8791;50.876;4.342;2024-01-11T13:42:32;1.00;99.90
17348;DHT22;8791;50.876;4.342;2024-01-11T13:45:00;0.90;99.90
17348;DHT22;8791;50.876;4.342;2024-01-11T13:47:28;1.00;99.90
17348;DHT22;8791;50.876;4.342;2024-01-11T13:49:56;0.90;99.90
17348;DHT22;8791;50.876;4.342;2024-01-11T13:52:24;1.10;99.90
17348;DHT22;8791;50.876;4.342;2024-01-11T13:54:51;1.20;99.90
17348;DHT22;8791;50.876;4.342;2024-01-11T13:57:17;1.10;99.90
17348;DHT22;8791;50.876;4.342;2024-01-11T13:59:45;1.20;99.90
17348;DHT22;8791;50.876;4.342;2024-01-11T14:02:11;1.10;99.90
17348;DHT22;8791;50.876;4.342;2024-01-11T14:04:39;1.20;99.90
17348;DHT22;8791;50.876;4.342;2024-01-11T14:07:07;1.30;99.90
17348;DHT22;8791;50.876;4.342;2024-01-11T14:09:34;1.30;99.90
17348;DHT22;8791;50.876;4.342;2024-01-11T14:12:01;1.20;99.90
17348;DHT22;8791;50.876;4.342;2024-01-11T14:14:28;1.20;99.90
17348;DHT22;8791;50.876;4.342;2024-01-11T14:16:55;1.20;99.90
17348;DHT22;8791;50.876;4.342;2024-01-11T14:19:22;1.30;99.90
17348;DHT22;8791;50.876;4.342;2024-01-11T14:21:53;1.30;99.90
17348;DHT22;8791;50.876;4.342;2024-01-11T14:24:23;1.50;99.90
17348;DHT22;8791;50.876;4.342;2024-01-11T14:26:51;1.50;99.90
17348;DHT22;8791;50.876;4.342;2024-01-11T14:29:20;1.40;99.90
17348;DHT22;8791;50.876;4.342;2024-01-11T14:31:47;1.40;99.90
17348;DHT22;8791;50.876;4.342;2024-01-11T14:34:17;1.50;99.90
17348;DHT22;8791;50.876;4.342;2024-01-11T14:36:44;1.40;99.90
17348;DHT22;8791;50.876;4.342;2024-01-11T14:39:11;1.30;99.90
17348;DHT22;8791;50.876;4.342;2024-01-11T14:41:40;1.30;99.90
17348;DHT22;8791;50.876;4.342;2024-01-11T14:44:07;1.30;99.90
17348;DHT22;8791;50.876;4.342;2024-01-11T14:46:36;1.30;99.90
17348;DHT22;8791;50.876;4.342;2024-01-11T14:49:03;1.30;99.90
17348;DHT22;8791;50.876;4.342;2024-01-11T14:51:33;1.40;99.90
17348;DHT22;8791;50.876;4.342;2024-01-11T14:54:02;1.30;99.90
17348;DHT22;8791;50.876;4.342;2024-01-11T14:56:30;1.30;99.90
17348;DHT22;8791;50.876;4.342;2024-01-11T14:58:58;1.30;99.90
17348;DHT22;8791;50.876;4.342;2024-01-11T15:01:25;1.20;99.90
17348;DHT22;8791;50.876;4.342;2024-01-11T15:03:52;1.30;99.90
17348;DHT22;8791;50.876;4.342;2024-01-11T15:06:19;1.10;99.90
17348;DHT22;8791;50.876;4.342;2024-01-11T15:08:46;1.10;99.90
17348;DHT22;8791;50.876;4.342;2024-01-11T15:11:13;1.30;99.90
17348;DHT22;8791;50.876;4.342;2024-01-11T15:13:40;1.30;99.90
17348;DHT22;8791;50.876;4.342;2024-01-11T15:16:09;1.30;99.90
17348;DHT22;8791;50.876;4.342;2024-01-11T15:18:36;1.20;99.90
17348;DHT22;8791;50.876;4.342;2024-01-11T15:21:03;1.20;99.90
17348;DHT22;8791;50.876;4.342;2024-01-11T15:23:30;1.20;99.90
17348;DHT22;8791;50.876;4.342;2024-01-11T15:25:58;1.10;99.90
17348;DHT22;8791;50.876;4.342;2024-01-11T15:28:25;1.00;99.90
17348;DHT22;8791;50.876;4.342;2024-01-11T15:30:51;1.00;99.90
17348;DHT22;8791;50.876;4.342;2024-01-11T15:33:20;1.00;99.90
17348;DHT22;8791;50.876;4.342;2024-01-11T15:35:47;1.10;99.90
17348;DHT22;8791;50.876;4.342;2024-01-11T15:38:14;1.00;99.90
17348;DHT22;8791;50.876;4.342;2024-01-11T15:40:41;0.80;99.90
17348;DHT22;8791;50.876;4.342;2024-01-11T15:43:09;0.70;99.90
17348;DHT22;8791;50.876;4.342;2024-01-11T15:45:36;0.60;99.90
17348;DHT22;8791;50.876;4.342;2024-01-11T15:48:04;0.90;99.90
17348;DHT22;8791;50.876;4.342;2024-01-11T15:50:32;0.90;99.90
17348;DHT22;8791;50.876;4.342;2024-01-11T15:52:59;0.70;99.90